Time;durP1;ratioP1;P1;durP2;ratioP2;P2;SDS_P1;SDS_P2;PMS_P1;PMS_P2;Temp;Humidity;BMP_temperature;BMP_pressure;BME280_temperature;BME280_humidity;BME280_pressure;Samples;Min_cycle;Max_cycle;Signal;HPM_P1;HPM_P2
2021/06/26 00:02:07;;;;;;;7.00;2.20;;;;;;;24.50;52.69;99189.69;1755152;80;21080;-42
2021/06/26 00:04:33;;;;;;;4.62;1.87;;;;;;;24.50;52.62;99188.30;1758292;80;21569;-42
2021/06/26 00:07:00;;;;;;;3.42;1.77;;;;;;;24.50;52.83;99193.84;1768635;81;21104;-42
2021/06/26 00:09:26;;;;;;;9.03;2.00;;;;;;;24.50;52.90;99199.39;1763729;80;21055;-42
2021/06/26 00:11:53;;;;;;;8.13;2.05;;;;;;;24.50;53.23;99204.16;1752565;81;21817;-42
2021/06/26 00:14:20;;;;;;;5.80;2.15;;;;;;;24.49;53.22;99200.64;1754638;80;21027;-42
2021/06/26 00:16:48;;;;;;;6.25;1.92;;;;;;;24.48;53.27;99194.16;1741891;80;20969;-42
2021/06/26 00:19:15;;;;;;;6.10;2.05;;;;;;;24.49;53.09;99200.64;1767553;80;21098;-42
2021/06/26 00:21:41;;;;;;;4.15;1.87;;;;;;;24.47;53.13;99207.25;1759676;80;21009;-42
2021/06/26 00:24:08;;;;;;;6.05;2.35;;;;;;;24.46;53.02;99204.31;1760488;80;21469;-42
2021/06/26 00:26:35;;;;;;;6.40;2.00;;;;;;;24.42;53.27;99200.14;1771021;80;21040;-42
2021/06/26 00:29:02;;;;;;;8.53;2.10;;;;;;;24.38;53.17;99201.67;1771473;80;21100;-42
2021/06/26 00:31:29;;;;;;;6.17;2.10;;;;;;;24.34;53.01;99202.44;1750867;80;21534;-42
2021/06/26 00:33:56;;;;;;;6.03;2.37;;;;;;;24.29;53.07;99203.03;1767417;80;21775;-42
2021/06/26 00:36:23;;;;;;;6.92;2.40;;;;;;;24.27;53.23;99202.70;1764757;80;21219;-42
2021/06/26 00:38:50;;;;;;;6.75;2.52;;;;;;;24.25;53.34;99201.02;1775478;80;20984;-42
2021/06/26 00:41:17;;;;;;;9.65;2.33;;;;;;;24.22;53.50;99192.22;1777370;80;21071;-42
2021/06/26 00:43:43;;;;;;;8.08;2.20;;;;;;;24.19;53.73;99186.98;1772036;80;20992;-42
2021/06/26 00:46:11;;;;;;;10.58;3.05;;;;;;;24.19;53.90;99182.05;1760212;80;21021;-42
2021/06/26 00:48:38;;;;;;;7.05;2.42;;;;;;;24.16;54.18;99178.77;1766348;80;21129;-42
2021/06/26 00:51:05;;;;;;;9.60;2.67;;;;;;;24.14;54.41;99175.09;1759444;80;20961;-42
2021/06/26 00:53:32;;;;;;;7.42;2.98;;;;;;;24.11;54.67;99164.13;1774643;80;20984;-42
2021/06/26 00:55:58;;;;;;;11.03;3.20;;;;;;;24.07;54.98;99164.27;1770864;80;21495;-42
2021/06/26 00:58:25;;;;;;;7.55;2.65;;;;;;;24.05;55.34;99167.35;1767721;80;21557;-42
2021/06/26 01:00:52;;;;;;;14.15;3.22;;;;;;;23.99;55.71;99163.02;1761528;80;21123;-42
2021/06/26 01:03:21;;;;;;;11.18;4.17;;;;;;;23.95;56.10;99165.77;1762229;80;20953;-42
2021/06/26 01:05:48;;;;;;;10.23;3.40;;;;;;;23.90;56.36;99171.28;1761186;80;20929;-42
2021/06/26 01:08:15;;;;;;;7.35;2.77;;;;;;;23.89;56.52;99171.73;1755344;80;21047;-42
2021/06/26 01:10:41;;;;;;;9.38;3.50;;;;;;;23.86;56.74;99165.11;1739968;80;21543;-42
2021/06/26 01:13:09;;;;;;;9.90;3.35;;;;;;;23.84;56.96;99167.55;1742831;80;21127;-42
2021/06/26 01:15:36;;;;;;;6.33;2.90;;;;;;;23.84;57.04;99171.70;1752798;80;21089;-42
2021/06/26 01:18:03;;;;;;;10.88;3.60;;;;;;;23.80;57.27;99169.08;1740412;80;21092;-42
2021/06/26 01:20:30;;;;;;;11.53;3.12;;;;;;;23.79;57.38;99172.29;1704826;80;20989;-42
2021/06/26 01:22:59;;;;;;;8.68;3.33;;;;;;;23.77;57.56;99169.97;1751982;80;21613;-42
2021/06/26 01:25:28;;;;;;;7.60;3.85;;;;;;;23.80;57.64;99172.45;1766581;80;21096;-42
2021/06/26 01:27:56;;;;;;;9.25;3.75;;;;;;;23.79;57.82;99167.53;1735263;80;21548;-42
2021/06/26 01:30:29;;;;;;;14.70;3.50;;;;;;;23.78;57.92;99170.13;1756518;80;21044;-42
2021/06/26 01:32:56;;;;;;;8.03;3.87;;;;;;;23.77;58.16;99158.12;1762383;80;21284;-42
2021/06/26 01:35:23;;;;;;;9.58;3.70;;;;;;;23.77;58.40;99158.12;1744918;80;21535;-42
2021/06/26 01:37:50;;;;;;;10.30;3.70;;;;;;;23.75;58.52;99161.36;1713324;83;21407;-42
2021/06/26 01:40:21;;;;;;;7.40;3.90;;;;;;;23.74;58.55;99154.27;1725612;80;21001;-42
2021/06/26 01:42:48;;;;;;;10.32;3.65;;;;;;;23.73;58.77;99151.34;1715251;80;21080;-42
2021/06/26 01:45:15;;;;;;;11.45;4.28;;;;;;;23.72;58.79;99145.64;1732576;80;21025;-42
2021/06/26 01:47:48;;;;;;;10.18;3.70;;;;;;;23.71;59.02;99153.80;1737116;80;21025;-42
2021/06/26 01:50:17;;;;;;;10.30;4.20;;;;;;;23.71;59.12;99150.27;1739610;80;21133;-42
2021/06/26 01:52:45;;;;;;;8.08;4.30;;;;;;;23.71;59.32;99159.34;1739889;80;21032;-42
2021/06/26 01:55:16;;;;;;;11.43;4.37;;;;;;;23.70;59.46;99159.17;1742559;80;21084;-42
2021/06/26 01:57:43;;;;;;;11.28;4.62;;;;;;;23.69;59.63;99153.48;1707295;83;21028;-42
2021/06/26 02:00:11;;;;;;;12.03;4.37;;;;;;;23.67;59.82;99143.45;1702999;84;21052;-42
2021/06/26 02:02:42;;;;;;;11.57;4.35;;;;;;;23.67;60.00;99142.08;1765257;80;21097;-42
2021/06/26 02:05:10;;;;;;;11.50;4.67;;;;;;;23.66;60.17;99137.02;1761924;80;21515;-42
2021/06/26 02:07:38;;;;;;;11.10;4.45;;;;;;;23.65;60.33;99140.39;1743262;80;21057;-42
2021/06/26 02:10:07;;;;;;;11.90;4.72;;;;;;;23.63;60.52;99128.98;1753822;80;21041;-43
2021/06/26 02:12:35;;;;;;;;;;;;;;;23.63;60.63;99130.38;1761082;80;21080;-42
2021/06/26 02:15:03;;;;;;;9.03;4.97;;;;;;;23.62;60.76;99124.70;1760236;80;21119;-42
2021/06/26 02:17:31;;;;;;;11.93;4.63;;;;;;;23.52;61.00;99116.19;1732835;80;21065;-42
2021/06/26 02:19:58;;;;;;;11.55;4.95;;;;;;;23.54;61.02;99119.86;1767363;81;21036;-42
2021/06/26 02:22:25;;;;;;;12.95;4.87;;;;;;;23.54;61.02;99122.02;1752550;80;21041;-42
2021/06/26 02:24:51;;;;;;;10.88;4.53;;;;;;;23.55;61.01;99124.95;1748974;80;21535;-42
2021/06/26 02:27:18;;;;;;;12.55;4.60;;;;;;;23.56;60.96;99123.73;1745721;80;21797;-42
2021/06/26 02:29:44;;;;;;;12.28;4.80;;;;;;;23.56;60.96;99125.73;1766399;80;21004;-42
2021/06/26 02:32:11;;;;;;;11.48;4.70;;;;;;;23.54;61.05;99119.25;1752078;80;21069;-42
2021/06/26 02:34:39;;;;;;;10.32;4.47;;;;;;;23.53;61.06;99123.23;1762105;80;21068;-42
2021/06/26 02:37:06;;;;;;;11.22;4.30;;;;;;;23.51;61.07;99119.39;1750101;80;21108;-42
2021/06/26 02:39:32;;;;;;;6.00;3.87;;;;;;;23.47;61.01;99116.77;1753045;80;21109;-42
2021/06/26 02:41:59;;;;;;;9.60;3.62;;;;;;;23.45;60.99;99112.89;1748363;80;21044;-42
2021/06/26 02:44:26;;;;;;;16.87;4.08;;;;;;;23.44;60.84;99110.70;1752167;80;21480;-42
2021/06/26 02:46:53;;;;;;;10.00;4.10;;;;;;;23.45;60.58;99110.13;1742931;80;21492;-42
2021/06/26 02:49:20;;;;;;;7.22;3.83;;;;;;;23.44;60.54;99116.84;1741935;80;21026;-42
2021/06/26 02:51:48;;;;;;;12.18;4.10;;;;;;;23.43;60.43;99113.95;1754518;80;21960;-42
2021/06/26 02:54:15;;;;;;;6.67;3.85;;;;;;;23.40;60.40;99121.91;1766801;80;21565;-42
2021/06/26 02:56:42;;;;;;;11.30;3.70;;;;;;;23.44;60.35;99115.47;1759724;80;20905;-42
2021/06/26 02:59:08;;;;;;;10.08;4.15;;;;;;;23.46;60.22;99117.98;1747190;80;21041;-42
2021/06/26 03:01:35;;;;;;;9.90;4.05;;;;;;;23.48;60.10;99116.16;1742252;80;21036;-42
2021/06/26 03:04:02;;;;;;;9.80;3.83;;;;;;;23.49;59.98;99121.22;1748343;80;21876;-42
2021/06/26 03:06:28;;;;;;;9.85;3.80;;;;;;;23.52;59.84;99118.17;1755828;80;21080;-42
2021/06/26 03:08:56;;;;;;;12.13;4.10;;;;;;;23.53;59.71;99113.55;1734015;80;21065;-42
2021/06/26 03:11:23;;;;;;;9.28;3.95;;;;;;;23.57;59.63;99119.75;1742269;80;20986;-43
2021/06/26 03:13:49;;;;;;;11.68;4.10;;;;;;;23.60;59.52;99109.76;1763004;80;21479;-43
2021/06/26 03:16:17;;;;;;;9.43;4.00;;;;;;;23.63;59.44;99109.61;1759780;80;20960;-42
2021/06/26 03:18:46;;;;;;;8.63;3.62;;;;;;;23.69;59.26;99111.19;1706891;83;20937;-42
2021/06/26 03:21:13;;;;;;;8.13;3.40;;;;;;;23.74;59.09;99105.05;1695675;83;20966;-42
2021/06/26 03:23:40;;;;;;;8.98;3.72;;;;;;;23.79;58.87;99112.16;1698217;83;21025;-42
2021/06/26 03:26:07;;;;;;;9.93;3.80;;;;;;;23.86;58.73;99113.12;1692148;83;21125;-42
2021/06/26 03:28:34;;;;;;;9.03;3.65;;;;;;;23.90;58.49;99107.59;1687724;84;21103;-43
2021/06/26 03:31:01;;;;;;;8.13;3.60;;;;;;;23.96;58.40;99105.01;1694165;82;21592;-43
2021/06/26 03:33:28;;;;;;;8.58;3.77;;;;;;;24.03;58.29;99099.17;1674160;84;21069;-43
2021/06/26 03:35:54;;;;;;;11.18;3.67;;;;;;;24.09;58.12;99097.35;1679789;82;21089;-43
2021/06/26 03:38:21;;;;;;;9.23;4.03;;;;;;;24.16;57.89;99101.20;1693338;84;21106;-43
2021/06/26 03:40:49;;;;;;;7.55;3.70;;;;;;;24.21;57.85;99095.87;1701330;84;20934;-42
2021/06/26 03:43:17;;;;;;;10.30;4.47;;;;;;;24.28;57.69;99100.97;1691136;84;20945;-42
2021/06/26 03:45:43;;;;;;;7.50;3.67;;;;;;;24.32;57.51;99100.98;1700307;84;21046;-42
2021/06/26 03:48:10;;;;;;;9.93;3.87;;;;;;;24.38;57.40;99103.92;1720926;82;21107;-43
2021/06/26 03:50:40;;;;;;;6.78;3.60;;;;;;;24.43;57.31;99099.16;1691070;84;21053;-43
2021/06/26 03:53:08;;;;;;;20.72;5.03;;;;;;;24.50;57.23;99092.69;1700399;84;21153;-43
2021/06/26 03:55:34;;;;;;;11.90;4.47;;;;;;;24.59;57.38;99086.41;1707107;82;20996;-43
2021/06/26 03:58:01;;;;;;;8.58;3.60;;;;;;;24.65;57.39;99090.86;1679366;84;20978;-43
2021/06/26 04:00:28;;;;;;;7.40;3.58;;;;;;;24.73;57.01;99091.95;1678309;82;21042;-43
2021/06/26 04:02:55;;;;;;;8.83;4.08;;;;;;;24.80;56.74;99088.25;1690372;82;21580;-43
2021/06/26 04:05:22;;;;;;;9.80;4.05;;;;;;;24.87;56.57;99088.59;1708382;82;21136;-43
2021/06/26 04:07:50;;;;;;;10.28;4.30;;;;;;;24.92;56.45;99085.98;1708167;82;21034;-43
2021/06/26 04:10:17;;;;;;;9.38;4.00;;;;;;;24.98;56.16;99076.42;1687380;82;21073;-43
2021/06/26 04:12:43;;;;;;;8.83;3.65;;;;;;;25.04;56.43;99071.78;1672575;83;21113;-43
2021/06/26 04:15:12;;;;;;;10.55;4.05;;;;;;;25.10;56.21;99062.38;1683959;83;21038;-43
2021/06/26 04:17:39;;;;;;;12.05;3.90;;;;;;;25.17;56.01;99060.53;1687949;84;21185;-43
2021/06/26 04:20:08;;;;;;;8.25;3.75;;;;;;;25.23;55.72;99059.41;1699244;84;20966;-43
2021/06/26 04:22:34;;;;;;;9.43;3.75;;;;;;;25.31;55.75;99062.66;1693204;84;21030;-43
2021/06/26 04:26:20;;;;;;;11.15;4.00;;;;;;;25.47;55.30;99049.78;1786692;78;22740;-43
2021/06/26 04:28:47;;;;;;;6.95;3.67;;;;;;;25.47;55.10;99048.40;1727927;80;21583;-42
2021/06/26 04:31:14;;;;;;;11.05;3.95;;;;;;;25.54;54.95;99039.75;1750666;80;21100;-43
2021/06/26 04:33:41;;;;;;;9.10;4.17;;;;;;;25.62;55.18;99047.14;1735081;80;21531;-43
2021/06/26 04:36:13;;;;;;;7.90;3.90;;;;;;;25.69;55.19;99042.66;1727018;81;21008;-43
2021/06/26 04:38:37;;;;;;;8.95;4.55;;;;;;;25.78;55.18;99050.33;1662869;83;20948;-43
2021/06/26 04:41:04;;;;;;;12.13;4.10;;;;;;;25.84;54.48;99046.30;1722251;83;21008;-43
2021/06/26 04:43:31;;;;;;;9.40;3.92;;;;;;;25.91;54.48;99047.32;1715667;83;21589;-43
2021/06/26 04:45:58;;;;;;;7.90;3.62;;;;;;;25.98;54.21;99051.16;1703448;83;21031;-43
2021/06/26 04:48:27;;;;;;;9.20;3.90;;;;;;;26.06;54.30;99046.78;1694434;84;20944;-43
2021/06/26 04:50:53;;;;;;;9.85;4.50;;;;;;;26.12;53.94;99046.29;1694367;84;20976;-43
2021/06/26 04:53:20;;;;;;;9.65;4.00;;;;;;;26.20;53.76;99050.86;1699204;83;21118;-43
2021/06/26 04:55:52;;;;;;;9.40;4.35;;;;;;;26.26;53.41;99044.22;1700579;83;21491;-43
2021/06/26 04:58:21;;;;;;;12.20;4.08;;;;;;;26.31;53.38;99046.34;1694410;84;20932;-44
2021/06/26 05:00:57;;;;;;;9.55;4.58;;;;;;;26.37;53.21;99044.46;1714650;81;21020;-43
2021/06/26 05:03:20;;;;;;;;;;;;;;;26.43;53.11;99048.75;1715499;83;21021;-43
2021/06/26 05:05:48;;;;;;;9.45;3.87;;;;;;;26.49;53.14;99044.67;1687766;83;20220;-43
2021/06/26 05:08:16;;;;;;;8.15;4.03;;;;;;;26.46;53.56;99055.36;1676412;84;21101;-43
2021/06/26 05:10:44;;;;;;;9.28;4.25;;;;;;;26.56;53.05;99052.04;1680697;85;21092;-43
2021/06/26 05:13:11;;;;;;;9.63;4.17;;;;;;;26.66;52.89;99051.34;1709357;83;20993;-43
2021/06/26 05:15:38;;;;;;;10.43;4.50;;;;;;;26.75;52.93;99054.05;1693069;82;21803;-43
2021/06/26 05:18:05;;;;;;;10.70;4.10;;;;;;;26.82;52.63;99055.05;1723182;83;21036;-43
2021/06/26 05:20:31;;;;;;;10.35;4.50;;;;;;;26.93;52.73;99050.36;1700043;82;21165;-43
2021/06/26 05:22:59;;;;;;;10.68;4.35;;;;;;;27.01;52.68;99058.49;1724942;83;21063;-43
2021/06/26 05:25:25;;;;;;;10.32;4.25;;;;;;;27.10;52.42;99051.44;1713491;83;20925;-43
2021/06/26 05:27:52;;;;;;;8.18;4.15;;;;;;;27.20;52.29;99052.89;1750151;82;21536;-43
2021/06/26 05:30:19;;;;;;;6.83;4.12;;;;;;;27.29;51.66;99054.18;1750066;82;21040;-43
2021/06/26 05:32:45;;;;;;;9.00;4.53;;;;;;;27.39;51.22;99053.45;1743946;81;21149;-43
2021/06/26 05:35:12;;;;;;;10.38;4.35;;;;;;;27.47;51.50;99050.41;1733386;80;21001;-43
2021/06/26 05:37:39;;;;;;;7.37;4.40;;;;;;;27.58;51.49;99056.20;1741071;82;20937;-43
2021/06/26 05:40:07;;;;;;;8.98;4.40;;;;;;;27.68;51.19;99053.45;1733818;80;20941;-43
2021/06/26 05:42:34;;;;;;;8.63;4.33;;;;;;;27.76;50.67;99047.61;1730787;81;21045;-43
2021/06/26 05:45:01;;;;;;;8.70;4.78;;;;;;;27.85;50.51;99050.28;1758172;81;21668;-43
2021/06/26 05:47:28;;;;;;;8.43;4.72;;;;;;;27.92;50.14;99049.89;1743729;82;21070;-43
2021/06/26 05:49:54;;;;;;;8.93;4.72;;;;;;;27.99;50.12;99055.04;1719733;82;21572;-43
2021/06/26 05:52:21;;;;;;;9.68;4.67;;;;;;;28.07;49.46;99058.98;1749548;82;20966;-43
2021/06/26 05:54:49;;;;;;;8.18;4.62;;;;;;;28.15;49.41;99058.58;1750712;82;21565;-43
2021/06/26 05:57:16;;;;;;;8.93;4.50;;;;;;;28.22;49.82;99063.14;1751174;82;21137;-43
2021/06/26 05:59:43;;;;;;;11.93;4.87;;;;;;;28.30;50.08;99058.67;1751287;82;21539;-43
2021/06/26 06:02:13;;;;;;;12.03;5.00;;;;;;;28.37;50.01;99061.03;1751246;82;21249;-43
2021/06/26 06:04:38;;;;;;;14.35;5.30;;;;;;;28.45;50.32;99061.39;1750194;81;21013;-43
2021/06/26 06:07:04;;;;;;;9.45;4.42;;;;;;;28.52;49.87;99066.53;1749549;82;21022;-43
2021/06/26 06:09:31;;;;;;;10.38;4.87;;;;;;;28.60;49.67;99063.48;1751224;82;21099;-43
2021/06/26 06:11:59;;;;;;;14.58;4.83;;;;;;;28.69;49.44;99070.94;1746835;81;20949;-43
2021/06/26 06:14:25;;;;;;;9.40;4.87;;;;;;;28.76;49.79;99069.89;1721550;83;21020;-43
2021/06/26 06:16:52;;;;;;;9.95;4.90;;;;;;;28.83;49.23;99064.52;1721379;83;21076;-43
2021/06/26 06:19:19;;;;;;;9.10;5.03;;;;;;;28.91;49.10;99062.20;1733474;82;21040;-43
2021/06/26 06:21:46;;;;;;;11.57;4.62;;;;;;;29.01;48.58;99059.25;1764579;81;21186;-43
2021/06/26 06:24:13;;;;;;;13.83;4.90;;;;;;;29.08;48.29;99057.42;1726970;80;20986;-43
2021/06/26 06:26:39;;;;;;;9.83;4.50;;;;;;;29.14;48.48;99060.42;1744468;82;20995;-43
2021/06/26 06:29:06;;;;;;;6.67;4.35;;;;;;;29.23;47.63;99059.48;1742543;81;21056;-43
2021/06/26 06:31:34;;;;;;;10.65;4.70;;;;;;;29.32;47.23;99065.69;1741789;82;21026;-43
2021/06/26 06:34:00;;;;;;;11.33;4.80;;;;;;;29.42;47.14;99062.72;1741988;82;21065;-43
2021/06/26 06:36:27;;;;;;;10.95;5.00;;;;;;;29.51;46.52;99064.70;1742002;81;20935;-43
2021/06/26 06:38:54;;;;;;;9.30;4.90;;;;;;;29.60;46.53;99063.13;1741497;81;21002;-43
2021/06/26 06:41:21;;;;;;;10.63;4.60;;;;;;;29.70;45.64;99061.67;1741448;81;21508;-43
2021/06/26 06:43:47;;;;;;;7.22;4.47;;;;;;;29.79;45.33;99057.29;1742181;81;21063;-43
2021/06/26 06:46:14;;;;;;;14.73;5.33;;;;;;;29.88;45.23;99049.97;1741634;82;21123;-43
2021/06/26 06:48:40;;;;;;;9.35;4.60;;;;;;;29.96;45.04;99054.64;1743310;81;20957;-43
2021/06/26 06:51:07;;;;;;;10.43;4.62;;;;;;;30.04;45.36;99057.10;1743117;82;20990;-43
2021/06/26 06:53:33;;;;;;;12.68;4.75;;;;;;;30.15;45.56;99056.41;1743052;81;21587;-43
2021/06/26 06:56:00;;;;;;;11.65;4.67;;;;;;;30.26;45.59;99058.50;1745341;81;20997;-43
2021/06/26 06:58:26;;;;;;;10.70;4.80;;;;;;;30.36;45.39;99060.56;1755178;81;21825;-43
2021/06/26 07:00:53;;;;;;;9.00;4.53;;;;;;;30.45;45.03;99064.53;1742023;81;21054;-43
2021/06/26 07:03:20;;;;;;;7.33;4.62;;;;;;;30.53;43.98;99063.47;1713477;83;21013;-43
2021/06/26 07:05:46;;;;;;;8.28;4.55;;;;;;;30.61;43.89;99062.48;1678600;85;21013;-43
2021/06/26 07:08:13;;;;;;;8.23;4.75;;;;;;;30.71;43.54;99061.63;1679075;85;20997;-43
2021/06/26 07:10:39;;;;;;;8.45;4.95;;;;;;;30.81;44.14;99057.95;1678938;85;21137;-43
2021/06/26 07:13:06;;;;;;;8.23;4.70;;;;;;;30.89;43.35;99052.76;1702498;84;21032;-43
2021/06/26 07:15:34;;;;;;;9.65;5.00;;;;;;;30.97;43.65;99063.61;1697753;84;21479;-43
2021/06/26 07:18:01;;;;;;;9.00;4.80;;;;;;;31.07;42.85;99058.56;1678695;85;21088;-43
2021/06/26 07:20:28;;;;;;;11.12;4.87;;;;;;;31.16;43.18;99058.32;1678925;85;21534;-43
2021/06/26 07:22:56;;;;;;;10.63;5.12;;;;;;;31.27;43.08;99052.73;1682016;84;21170;-43
2021/06/26 07:25:22;;;;;;;10.18;5.20;;;;;;;31.39;43.01;99057.06;1738233;81;21107;-43
2021/06/26 07:27:50;;;;;;;9.60;4.85;;;;;;;31.50;43.41;99054.91;1738551;81;20942;-43
2021/06/26 07:30:19;;;;;;;10.50;4.47;;;;;;;31.58;43.02;99051.73;1760265;81;21004;-43
2021/06/26 07:32:46;;;;;;;9.43;4.60;;;;;;;31.68;42.68;99046.63;1745708;81;21513;-43
2021/06/26 07:35:14;;;;;;;9.20;4.70;;;;;;;31.79;41.95;99036.18;1742131;82;21051;-43
2021/06/26 07:37:42;;;;;;;8.85;4.70;;;;;;;31.90;41.57;99038.94;1742914;82;21634;-43
2021/06/26 07:40:11;;;;;;;7.92;4.87;;;;;;;32.02;42.16;99035.48;1742546;82;21013;-43
2021/06/26 07:42:39;;;;;;;11.57;4.90;;;;;;;32.14;41.05;99034.86;1743290;81;20942;-43
2021/06/26 07:45:07;;;;;;;13.18;5.05;;;;;;;32.25;41.41;99036.97;1742892;82;21555;-43
2021/06/26 07:47:35;;;;;;;8.53;4.85;;;;;;;32.37;40.98;99032.72;1737435;82;21085;-43
2021/06/26 07:50:02;;;;;;;12.85;4.90;;;;;;;32.49;41.37;99031.38;1734451;82;20958;-43
2021/06/26 07:52:28;;;;;;;7.45;4.55;;;;;;;32.59;42.01;99027.77;1742718;80;21023;-43
2021/06/26 07:54:55;;;;;;;9.23;4.60;;;;;;;32.68;41.15;99033.09;1742068;81;21464;-43
2021/06/26 07:57:22;;;;;;;9.78;4.62;;;;;;;32.70;40.00;99029.14;1741263;81;21039;-43
2021/06/26 07:59:50;;;;;;;9.13;5.22;;;;;;;32.73;40.10;99034.34;1741478;81;20919;-43
2021/06/26 08:02:16;;;;;;;12.98;4.78;;;;;;;32.81;40.71;99028.33;1741716;82;21473;-43
2021/06/26 08:04:43;;;;;;;9.55;5.08;;;;;;;32.88;41.22;99031.97;1719444;82;21284;-43
2021/06/26 08:07:10;;;;;;;8.58;5.00;;;;;;;32.93;40.99;99032.57;1743056;81;20966;-43
2021/06/26 08:09:36;;;;;;;12.03;5.22;;;;;;;32.99;41.59;99030.50;1741773;81;21630;-43
2021/06/26 08:12:05;;;;;;;12.03;5.10;;;;;;;33.06;40.86;99027.78;1751866;80;21155;-43
2021/06/26 08:14:33;;;;;;;9.80;4.80;;;;;;;33.14;40.17;99032.30;1744220;80;21485;-43
2021/06/26 08:16:59;;;;;;;12.58;5.33;;;;;;;33.21;39.44;99034.47;1741439;82;21018;-43
2021/06/26 08:19:27;;;;;;;7.97;4.20;;;;;;;33.27;39.15;99030.95;1741297;82;20985;-43
2021/06/26 08:21:54;;;;;;;9.43;4.17;;;;;;;33.35;39.25;99029.12;1741545;82;21065;-43
2021/06/26 08:24:22;;;;;;;13.58;5.87;;;;;;;33.39;39.81;99034.57;1777793;80;21530;-43
2021/06/26 08:26:49;;;;;;;10.05;4.70;;;;;;;33.45;40.43;99028.91;1770679;80;21083;-43
2021/06/26 08:29:16;;;;;;;10.58;4.25;;;;;;;33.48;38.55;99025.04;1750717;80;21514;-43
2021/06/26 08:31:43;;;;;;;8.80;4.62;;;;;;;33.43;39.62;99027.25;1751403;82;21083;-43
2021/06/26 08:34:09;;;;;;;10.35;4.67;;;;;;;33.42;39.44;99029.94;1714775;83;21084;-43
2021/06/26 08:36:36;;;;;;;10.15;4.58;;;;;;;33.43;39.27;99018.82;1714957;83;21135;-43
2021/06/26 08:39:03;;;;;;;9.45;4.40;;;;;;;33.47;39.61;99022.10;1714896;83;21001;-44
2021/06/26 08:41:30;;;;;;;16.23;5.22;;;;;;;33.52;39.40;99020.66;1715207;83;20969;-44
2021/06/26 08:43:56;;;;;;;9.50;4.47;;;;;;;33.60;38.62;99014.56;1687624;83;21008;-43
2021/06/26 08:46:23;;;;;;;9.20;4.50;;;;;;;33.69;38.92;99016.32;1686351;85;21056;-43
2021/06/26 08:48:50;;;;;;;11.68;5.03;;;;;;;33.71;38.98;99002.48;1686271;85;21880;-43
2021/06/26 08:51:18;;;;;;;9.55;4.70;;;;;;;33.73;38.78;99001.32;1686383;85;20941;-43
2021/06/26 08:53:44;;;;;;;11.93;4.62;;;;;;;33.80;40.24;99000.72;1658889;83;21001;-43
2021/06/26 08:56:12;;;;;;;13.38;5.03;;;;;;;33.92;39.60;99003.55;1711616;83;21044;-43
2021/06/26 08:58:40;;;;;;;7.12;4.40;;;;;;;34.01;39.57;99003.18;1743750;81;21464;-43
2021/06/26 09:01:07;;;;;;;13.88;4.90;;;;;;;34.12;39.12;99001.53;1750986;82;21075;-43
2021/06/26 09:03:34;;;;;;;10.70;4.53;;;;;;;34.15;39.39;98999.82;1751033;82;20957;-43
2021/06/26 09:06:03;;;;;;;12.28;5.50;;;;;;;34.24;39.41;99000.13;1751017;82;21016;-43
2021/06/26 09:08:30;;;;;;;7.00;4.60;;;;;;;34.29;38.97;99003.52;1751158;82;21578;-43
2021/06/26 09:10:56;;;;;;;7.45;4.80;;;;;;;34.27;39.59;99000.48;1751305;81;21010;-44
2021/06/26 09:13:26;;;;;;;12.20;4.85;;;;;;;34.29;39.59;98997.88;1769629;80;21420;-43
2021/06/26 09:16:11;;;;;;;8.18;4.85;;;;;;;34.34;39.95;99002.69;1751322;82;20938;-43
2021/06/26 09:18:45;;;;;;;12.05;5.35;;;;;;;34.41;39.73;98993.65;1737688;81;21484;-43
2021/06/26 09:24:10;;;;;;;9.90;4.83;;;;;;;34.49;39.26;98986.11;1750670;81;21040;-43
2021/06/26 09:26:39;;;;;;;8.83;4.78;;;;;;;34.50;39.58;98980.60;1753345;81;21100;-43
2021/06/26 09:29:17;;;;;;;11.55;5.33;;;;;;;34.54;38.22;98972.61;1756353;81;20991;-44
2021/06/26 09:31:54;;;;;;;8.08;4.83;;;;;;;34.46;39.21;98978.74;1742747;81;21005;-43
2021/06/26 09:34:23;;;;;;;10.40;5.60;;;;;;;34.45;38.69;98974.39;1754792;81;21009;-43
2021/06/26 09:37:05;;;;;;;9.53;5.60;;;;;;;34.51;40.57;98968.70;1755417;81;21068;-43
2021/06/26 09:39:38;;;;;;;11.40;4.72;;;;;;;34.58;40.48;98968.83;1744903;81;22241;-44
2021/06/26 09:42:26;;;;;;;10.30;4.75;;;;;;;34.68;39.96;98962.95;1754140;80;21465;-44
2021/06/26 09:45:09;;;;;;;9.80;5.20;;;;;;;34.75;39.97;98965.17;1756011;80;21507;-44
2021/06/26 09:47:39;;;;;;;11.30;5.90;;;;;;;34.83;39.52;98967.47;1707050;83;21487;-45
2021/06/26 09:50:16;;;;;;;9.18;5.28;;;;;;;34.87;39.45;98963.69;1712282;82;21075;-45
2021/06/26 09:53:05;;;;;;;12.18;5.28;;;;;;;34.98;39.70;98968.39;1702713;83;21110;-45
2021/06/26 09:55:38;;;;;;;10.65;5.17;;;;;;;35.11;40.19;98969.07;1691548;84;20983;-45
2021/06/26 09:58:16;;;;;;;10.45;5.17;;;;;;;35.11;39.44;98969.07;1703690;84;20995;-45
2021/06/26 10:00:45;;;;;;;12.13;5.22;;;;;;;35.04;37.52;98971.13;1694201;83;21628;-45
2021/06/26 10:03:18;;;;;;;10.68;5.30;;;;;;;34.85;37.84;98967.70;1717114;83;21033;-45
2021/06/26 10:05:46;;;;;;;8.98;5.10;;;;;;;34.78;37.98;98973.18;1720097;83;21087;-44
2021/06/26 10:08:14;;;;;;;16.12;5.33;;;;;;;34.64;37.92;98962.48;1717777;83;21023;-45
2021/06/26 10:10:42;;;;;;;18.45;5.62;;;;;;;34.46;38.55;98959.03;1695574;83;20990;-45
2021/06/26 10:13:13;;;;;;;7.53;4.97;;;;;;;34.32;39.33;98963.07;1697983;82;21597;-46
2021/06/26 10:15:42;;;;;;;6.67;5.00;;;;;;;34.14;39.87;98956.73;1711128;82;21391;-46
2021/06/26 10:18:11;;;;;;;10.98;5.65;;;;;;;33.72;40.26;98923.88;1711332;82;21824;-46
2021/06/26 10:20:38;;;;;;;;;;;;;;;33.68;41.05;98951.53;1710479;83;21088;-46
2021/06/26 10:23:04;;;;;;;11.97;5.83;;;;;;;33.43;41.83;98951.38;1698669;82;20179;-46
2021/06/26 10:25:40;;;;;;;9.95;5.60;;;;;;;33.10;42.61;98951.01;1697740;84;21050;-46
2021/06/26 10:28:16;;;;;;;13.20;5.87;;;;;;;32.85;43.14;98955.80;1675410;83;21061;-44
2021/06/26 10:30:44;;;;;;;13.18;5.95;;;;;;;32.64;43.92;98951.21;1733369;80;21183;-47
2021/06/26 10:33:11;;;;;;;24.47;7.42;;;;;;;32.47;44.48;98953.98;1720633;82;20997;-46
2021/06/26 10:35:42;;;;;;;23.02;8.73;;;;;;;32.27;47.90;98981.12;1762407;80;20942;-47
2021/06/26 10:38:11;;;;;;;15.00;6.00;;;;;;;31.77;49.72;99026.73;1746198;80;20985;-47
2021/06/26 10:40:51;;;;;;;23.47;7.22;;;;;;;30.86;43.56;99023.62;1750165;80;21045;-47
2021/06/26 10:43:27;;;;;;;19.80;6.97;;;;;;;30.18;44.40;98975.70;1734945;81;21123;-46
2021/06/26 10:46:12;;;;;;;15.25;7.00;;;;;;;29.58;46.13;98978.29;1687038;83;21036;-48
2021/06/26 10:48:41;;;;;;;15.65;7.30;;;;;;;29.12;48.96;98975.62;1720861;83;21072;-46
2021/06/26 10:51:09;;;;;;;12.88;6.65;;;;;;;28.76;51.54;98997.98;1734860;80;21563;-46
2021/06/26 10:53:40;;;;;;;13.80;6.25;;;;;;;28.47;54.23;99009.44;1751110;81;21027;-51
2021/06/26 10:56:13;;;;;;;18.17;7.45;;;;;;;28.23;54.61;98990.77;1751039;81;21105;-50
2021/06/26 10:58:43;;;;;;;11.05;4.60;;;;;;;27.79;55.73;98981.83;1748312;80;20950;-45
2021/06/26 11:01:16;;;;;;;8.65;3.87;;;;;;;27.71;52.97;99023.23;1744267;82;21554;-44
2021/06/26 11:03:44;;;;;;;11.50;4.97;;;;;;;27.34;52.60;99025.67;1730600;80;21036;-45
2021/06/26 11:06:26;;;;;;;8.10;4.22;;;;;;;26.81;52.17;99038.23;1696548;83;21554;-46
2021/06/26 11:09:07;;;;;;;12.65;4.90;;;;;;;26.30;53.20;99039.25;1686945;82;21123;-46
2021/06/26 11:11:43;;;;;;;13.62;4.62;;;;;;;25.89;54.49;99045.65;1698552;84;21025;-45
2021/06/26 11:14:20;;;;;;;10.72;4.58;;;;;;;25.64;56.36;99051.00;1690000;84;21029;-45
2021/06/26 11:16:54;;;;;;;9.48;4.30;;;;;;;25.40;55.20;99050.91;1728984;83;21547;-45
2021/06/26 11:19:29;;;;;;;12.75;4.85;;;;;;;25.09;55.83;99069.16;1709355;83;21036;-46
2021/06/26 11:21:56;;;;;;;9.13;3.98;;;;;;;24.77;57.26;99052.37;1698220;83;21554;-46
2021/06/26 11:24:36;;;;;;;9.75;4.53;;;;;;;24.48;56.67;99041.73;1700843;83;21076;-45
2021/06/26 11:27:05;;;;;;;12.23;4.90;;;;;;;24.27;59.76;99044.79;1692302;83;21069;-46
2021/06/26 11:29:38;;;;;;;11.05;3.95;;;;;;;24.03;60.57;99045.17;1706786;83;21007;-46
2021/06/26 11:32:24;;;;;;;7.10;4.20;;;;;;;23.85;59.78;99045.90;1714044;83;21005;-46
2021/06/26 11:35:10;;;;;;;10.85;5.28;;;;;;;23.62;60.89;99053.35;1694803;83;21112;-46
2021/06/26 11:37:46;;;;;;;9.48;4.50;;;;;;;23.30;60.40;99062.83;1696586;84;21018;-45
2021/06/26 11:40:22;;;;;;;10.55;4.17;;;;;;;22.99;61.17;99074.47;1691351;82;21499;-46